Nearby METAR Reports


KANE - Minneapls/Blaine, Minnesota, USA
Distance from station: ESE 8mi, 13km
Updated: 01/19/2022 7:45pm
Clear
Clear
 Wind from WNW
Wind: WNW 12 mph , 19 km/h, Gust: 21 mph , 33 km/h
Temperature: 1°F , -17°C
Wind Chill: -16°F , -27°C
Dew Point: -9°F , -23°C
Humidity: 60%
Barometer: 30.52 inHg , 1033.5 hPa
Clouds: Clear
Visibility: 10 miles , 16 km
2022/01/20 01:45 KANE 200145Z 29010G18KT 10SM CLR M17/M23 A3052
KMIC - Mnpls/Crystal, Minnesota, USA
Distance from station: S 8mi, 14km
Updated: 01/19/2022 7:53pm
Clear
Clear
 Wind from NW
Wind: NW 15 mph , 24 km/h
Temperature: -0°F , -18°C
Wind Chill: -19°F , -28°C
Dew Point: -11°F , -24°C
Humidity: 60%
Barometer: 30.53 inHg , 1033.9 hPa
Clouds: Clear
Visibility: 10 miles , 16 km
2022/01/20 01:53 KMIC 200153Z 31013KT 10SM CLR M18/M24 A3053 RMK AO2 PK WND 29027/0056 SLP365 T11781239
 
KMSP - Minneapolis, Minnesota, USA
Distance from station: SSE 22mi, 35km
Updated: 01/19/2022 7:53pm
Clear
Clear
 Wind from NW
Wind: NW 16 mph , 26 km/h
Temperature: 1°F , -17°C
Wind Chill: -19°F , -28°C
Dew Point: -9°F , -23°C
Humidity: 60%
Barometer: 30.54 inHg , 1034.2 hPa
Clouds: Clear
Visibility: 10 miles , 16 km
2022/01/20 01:53 KMSP 200153Z 32014KT 10SM CLR M17/M23 A3054 RMK AO2 SLP368 T11721233 $
KSTP - St. Paul, Minnesota, USA
Distance from station: SE 23mi, 38km
Updated: 01/19/2022 7:53pm
Clear
Clear
 Wind from NW
Wind: NW 18 mph , 30 km/h, Gust: 25 mph , 41 km/h
Temperature: 1°F , -17°C
Wind Chill: -20°F , -29°C
Dew Point: -9°F , -23°C
Humidity: 60%
Barometer: 30.55 inHg , 1034.5 hPa
Clouds: Clear
Visibility: 10 miles , 16 km
2022/01/20 01:53 KSTP 200153Z 31016G22KT 10SM CLR M17/M23 A3055 RMK AO2 SLP363 T11671228
 
KCFE - Buffalo Muni, Minnesota, USA
Distance from station: W 24mi, 38km
Updated: 01/19/2022 8:15pm
Few Clouds
Few Clouds
 Wind from WNW
Wind: WNW 13 mph , 20 km/h
Temperature: -4°F , -20°C
Wind Chill: -23°F , -31°C
Dew Point: -13°F , -25°C
Humidity: 65%
Barometer: 30.56 inHg , 1034.9 hPa
Clouds: Few Clouds
Visibility: 10 miles , 16 km
Cloud details: Few Clouds 5500 ft
2022/01/20 02:15 KCFE 200215Z AUTO 30011KT 10SM FEW055 M20/M25 A3056 RMK AO2
KFCM - Mnpls/Flying Cld, Minnesota, USA
Distance from station: S 25mi, 40km
Updated: 01/19/2022 7:53pm
Clear
Clear
 Wind from WNW
Wind: WNW 12 mph , 19 km/h
Temperature: -0°F , -18°C
Wind Chill: -17°F , -27°C
Dew Point: -9°F , -23°C
Humidity: 65%
Barometer: 30.54 inHg , 1034.2 hPa
Clouds: Clear
Visibility: 10 miles , 16 km
2022/01/20 01:53 KFCM 200153Z 30010KT 10SM CLR M18/M23 A3054 RMK AO2 SLP367 T11781233
 
KCBG - Cambridge Muni, Minnesota, USA
Distance from station: N 27mi, 43km
Updated: 01/19/2022 8:15pm
Clear
Clear
 Wind from WNW
Wind: WNW 13 mph , 20 km/h
Temperature: -0°F , -18°C
Wind Chill: -18°F , -28°C
Dew Point: -13°F , -25°C
Humidity: 54%
Barometer: 30.53 inHg , 1033.9 hPa
Clouds: Clear
Visibility: 10 miles , 16 km
2022/01/20 02:15 KCBG 200215Z AUTO 29011KT 10SM CLR M18/M25 A3053 RMK AO2
KPNM - Princeton Muni, Minnesota, USA
Distance from station: NNW 27mi, 44km
Updated: 01/19/2022 8:15pm
Clear
Clear
 Wind from WNW
Wind: WNW 12 mph , 19 km/h
Temperature: -4°F , -20°C
Wind Chill: -22°F , -30°C
Dew Point: -13°F , -25°C
Humidity: 65%
Barometer: 30.54 inHg , 1034.2 hPa
Clouds: Clear
Visibility: 10 miles , 16 km
2022/01/20 02:15 KPNM 200215Z AUTO 29010KT 10SM CLR M20/M25 A3054 RMK AO2
 
K21D - Lake Elmo, Minnesota, USA
Distance from station: ESE 28mi, 46km
Updated: 01/19/2022 8:15pm
Clear
Clear
 Wind from WNW
Wind: WNW 15 mph , 24 km/h
Temperature: 1°F , -17°C
Wind Chill: -18°F , -28°C
Dew Point: -9°F , -23°C
Humidity: 60%
Barometer: 30.52 inHg , 1033.5 hPa
Clouds: Clear
Visibility: 10 miles , 16 km
2022/01/20 02:15 K21D 200215Z AUTO 30013KT 10SM CLR M17/M23 A3052 RMK AO2
KSGS - South St Paul, Minnesota, USA
Distance from station: SE 28mi, 46km
Updated: 01/19/2022 8:15pm
Clear
Clear
 Wind from NW
Wind: NW 15 mph , 24 km/h, Gust: 22 mph , 35 km/h
Temperature: 1°F , -17°C
Wind Chill: -18°F , -28°C
Dew Point: -9°F , -23°C
Humidity: 60%
Barometer: 30.53 inHg , 1033.9 hPa
Clouds: Clear
Visibility: 10 miles , 16 km
2022/01/20 02:15 KSGS 200215Z AUTO 32013G19KT 10SM CLR M17/M23 A3053 RMK AO2 T11671230
 
KMGG - Maple Lake, Minnesota, USA
Distance from station: W 30mi, 48km
Updated: 01/19/2022 8:04pm
Clear
Clear
 Wind from WNW
Wind: WNW 10 mph , 17 km/h
Temperature: -4°F , -20°C
Wind Chill: -21°F , -29°C
Dew Point: -13°F , -25°C
Humidity: 65%
Barometer: 30.56 inHg , 1034.9 hPa
Clouds: Clear
Visibility: 10 miles , 16 km
2022/01/20 02:04 KMGG 200204Z AUTO 29009KT 10SM CLR M20/M25 A3056 RMK AO2
KOEO - Osceola, Wisconsin, USA
Distance from station: ENE 34mi, 55km
Updated: 01/19/2022 8:15pm
Clear
Clear
 Wind from WNW
Wind: WNW 12 mph , 19 km/h
Temperature: 3°F , -16°C
Wind Chill: -14°F , -26°C
Dew Point: -6°F , -21°C
Humidity: 66%
Barometer: 30.54 inHg , 1034.2 hPa
Clouds: Clear
Visibility: 10 miles , 16 km
2022/01/20 02:15 KOEO 200215Z AUTO 30010KT 10SM CLR M16/M21 A3054 RMK AO2 T11561212
 
KLVN - Mnpls/Airlake, Minnesota, USA
Distance from station: S 39mi, 63km
Updated: 01/19/2022 7:55pm
Clear
Clear
 Wind from WNW
Wind: WNW 12 mph , 19 km/h
Temperature: -0°F , -18°C
Wind Chill: -17°F , -27°C
Dew Point: -9°F , -23°C
Humidity: 65%
Barometer: 30.52 inHg , 1033.5 hPa
Clouds: Clear
Visibility: 10 miles , 16 km
2022/01/20 01:55 KLVN 200155Z AUTO 29010KT 10SM CLR M18/M23 A3052 RMK AO2
KRNH - New Richmond Mun, Wisconsin, USA
Distance from station: E 41mi, 66km
Updated: 01/19/2022 8:15pm
Clear
Clear
 Wind from WNW
Wind: WNW 10 mph , 17 km/h
Temperature: -0°F , -18°C
Wind Chill: -16°F , -27°C
Dew Point: -11°F , -24°C
Humidity: 60%
Barometer: 30.49 inHg , 1032.5 hPa
Clouds: Clear
Visibility: 10 miles , 16 km
2022/01/20 02:15 KRNH 200215Z AUTO 29009KT 10SM CLR M18/M24 A3049 RMK AO2 T11801236
 
KROS - Rush City, Minnesota, USA
Distance from station: NNE 41mi, 66km
Updated: 01/19/2022 8:15pm
Mostly cloudy
Mostly cloudy
 Wind from W
Wind: W 9 mph , 15 km/h
Temperature: -2°F , -19°C
Wind Chill: -18°F , -28°C
Dew Point: -11°F , -24°C
Humidity: 65%
Barometer: 30.51 inHg , 1033.2 hPa
Clouds: Mostly cloudy
Visibility: 10 miles , 16 km
Cloud details: Mostly cloudy 12000 ft
2022/01/20 02:15 KROS 200215Z AUTO 28008KT 10SM BKN120 M19/M24 A3051 RMK AO2 T11901237
KSTC - St. Cloud, Minnesota, USA
Distance from station: NW 41mi, 67km
Updated: 01/19/2022 7:53pm
Clear
Clear
 Wind from NW
Wind: NW 13 mph , 20 km/h
Temperature: -2°F , -19°C
Wind Chill: -21°F , -29°C
Dew Point: -13°F , -25°C
Humidity: 59%
Barometer: 30.54 inHg , 1034.2 hPa
Clouds: Clear
Visibility: 10 miles , 16 km
2022/01/20 01:53 KSTC 200153Z 31011KT 10SM CLR M19/M25 A3054 RMK AO2 SLP385 T11941250
 
KGYL - Glencoe, Minnesota, USA
Distance from station: SW 46mi, 74km
Updated: 01/19/2022 8:15pm
Clear
Clear
 Wind from WNW
Wind: WNW 16 mph , 26 km/h
Temperature: -4°F , -20°C
Wind Chill: -25°F , -32°C
Dew Point: -11°F , -24°C
Humidity: 71%
Barometer: 30.56 inHg , 1034.9 hPa
Clouds: Clear
Visibility: 10 miles , 16 km
2022/01/20 02:15 KGYL 200215Z AUTO 30014KT 10SM CLR M20/M24 A3056 RMK AO2 T12021243
KJMR - Mora, Minnesota, USA
Distance from station: N 48mi, 78km
Updated: 01/19/2022 8:15pm
Clear
Clear
 Wind from WNW
Wind: WNW 8 mph , 13 km/h
Temperature: -0°F , -18°C
Wind Chill: -14°F , -26°C
Dew Point: -11°F , -24°C
Humidity: 60%
Barometer: 30.52 inHg , 1033.5 hPa
Clouds: Clear
Visibility: 10 miles , 16 km
2022/01/20 02:15 KJMR 200215Z AUTO 30007KT 10SM CLR M18/M24 A3052 RMK AO2